createdAt,value
2023-03-23T15:58:27.645Z,77.56
2023-03-23T16:00:54.709Z,77.58
2023-03-23T16:03:27.567Z,77.79
2023-03-23T16:05:55.926Z,78.15
2023-03-23T16:08:22.405Z,77.65
2023-03-23T16:10:49.231Z,77.46
2023-03-23T16:13:16.242Z,78.13
2023-03-23T16:15:43.065Z,78.59
2023-03-23T16:18:17.801Z,77.55
2023-03-23T16:20:44.778Z,78.35
2023-03-23T16:23:11.335Z,78.35
2023-03-23T16:25:40.831Z,78.65
2023-03-23T16:28:11.905Z,78.35
2023-03-23T16:30:39.535Z,79.18
2023-03-23T16:33:05.944Z,79.29
2023-03-23T16:35:32.724Z,79.48
2023-03-23T16:38:08.557Z,79.50
2023-03-23T16:40:37.687Z,79.42
2023-03-23T16:43:08.263Z,79.83
2023-03-23T16:45:36.878Z,79.52
2023-03-23T16:48:05.847Z,80.26
2023-03-23T16:50:32.474Z,80.60
2023-03-23T16:52:59.008Z,81.75
2023-03-23T16:55:26.979Z,81.91
2023-03-23T16:58:05.352Z,82.41
2023-03-23T17:00:35.775Z,83.04
2023-03-23T17:03:02.445Z,83.06
2023-03-23T17:05:29.452Z,83.33
2023-03-23T17:07:56.259Z,83.54
2023-03-23T17:10:24.897Z,83.04
2023-03-23T17:12:51.312Z,83.85
2023-03-23T17:15:17.818Z,84.34
2023-03-23T17:17:44.420Z,84.45
2023-03-23T17:20:11.991Z,84.77
2023-03-23T17:22:39.602Z,84.32
2023-03-23T17:25:08.282Z,84.33
2023-03-23T17:27:36.722Z,84.07
2023-03-23T17:30:06.061Z,84.36
2023-03-23T17:32:32.823Z,84.59
2023-03-23T17:34:59.277Z,84.62
2023-03-23T17:37:26.035Z,85.23
2023-03-23T17:39:52.663Z,85.67
2023-03-23T17:42:19.192Z,86.27
2023-03-23T17:44:45.866Z,86.11
2023-03-23T17:47:12.522Z,86.68
2023-03-23T17:49:38.958Z,86.99
2023-03-23T17:52:05.482Z,88.41
2023-03-23T17:54:31.921Z,89.35
2023-03-23T17:56:58.702Z,89.14
2023-03-23T17:59:25.969Z,88.91
2023-03-23T18:01:53.516Z,88.99
2023-03-23T18:04:20.688Z,89.36
2023-03-23T18:06:47.213Z,89.26
2023-03-23T18:09:14.656Z,89.73
2023-03-23T18:11:41.603Z,89.37
2023-03-23T18:14:08.163Z,88.96
2023-03-23T18:16:34.646Z,89.17
2023-03-23T18:19:01.150Z,89.88
2023-03-23T18:21:27.548Z,90.38
2023-03-23T18:23:59.544Z,91.15
2023-03-23T18:26:28.950Z,91.69
2023-03-23T18:28:56.325Z,91.78
2023-03-23T18:31:23.092Z,91.69
2023-03-23T18:33:53.934Z,91.63
2023-03-23T18:36:23.071Z,91.66
2023-03-23T18:38:49.923Z,92.37
2023-03-23T18:41:17.769Z,92.25
2023-03-23T18:43:44.237Z,92.70
2023-03-23T18:46:10.714Z,92.77
2023-03-23T18:48:37.524Z,92.88
2023-03-23T18:51:04.483Z,93.36
2023-03-23T18:53:31.386Z,93.42
2023-03-23T18:56:06.564Z,93.50
2023-03-23T18:58:32.954Z,93.37
2023-03-23T19:01:04.314Z,93.82
2023-03-23T19:03:31.056Z,94.03
2023-03-23T19:05:59.800Z,94.40
2023-03-23T19:08:28.115Z,94.37
2023-03-23T19:11:04.102Z,94.48
2023-03-23T19:13:33.953Z,95.02
2023-03-23T19:16:00.966Z,95.07
2023-03-23T19:18:28.253Z,94.12
2023-03-23T19:21:13.519Z,94.09
2023-03-23T19:23:41.614Z,93.50
2023-03-23T19:26:08.012Z,92.83
2023-03-23T19:29:18.786Z,93.07
2023-03-23T19:31:24.722Z,93.32
2023-03-23T19:33:53.042Z,94.67
2023-03-23T19:36:24.283Z,95.02
2023-03-23T19:38:51.724Z,95.28
2023-03-23T19:41:19.303Z,95.67
2023-03-23T19:43:46.471Z,96.34
2023-03-23T19:46:13.988Z,96.40
2023-03-23T19:48:41.606Z,96.74
2023-03-23T19:51:09.287Z,96.82
2023-03-23T19:53:36.386Z,97.32
2023-03-23T19:56:03.757Z,97.25
2023-03-23T19:58:32.383Z,97.37
2023-03-23T20:01:00.604Z,97.33
2023-03-23T20:03:26.979Z,97.19
2023-03-23T20:06:01.133Z,97.31
2023-03-23T20:08:29.225Z,97.45
2023-03-23T20:11:07.081Z,97.06
2023-03-23T20:13:34.809Z,97.65
2023-03-23T20:16:01.603Z,97.21
2023-03-23T20:18:29.879Z,97.23
2023-03-23T20:21:25.785Z,97.68
2023-03-23T20:23:55.237Z,97.78
2023-03-23T20:26:28.509Z,97.63
2023-03-23T20:28:55.607Z,97.19
2023-03-23T20:31:26.514Z,97.32
2023-03-23T20:34:01.966Z,96.88
2023-03-23T20:36:40.331Z,96.44
2023-03-23T20:39:11.039Z,96.33
2023-03-23T20:41:41.337Z,96.37
2023-03-23T20:44:13.673Z,96.49
2023-03-23T20:46:41.253Z,96.58
2023-03-23T20:49:08.257Z,96.55
2023-03-23T20:51:34.816Z,96.47
2023-03-23T20:54:02.047Z,96.71
2023-03-23T20:56:28.715Z,96.55
2023-03-23T20:58:55.820Z,96.51
2023-03-23T21:01:22.288Z,96.80
2023-03-23T21:03:53.890Z,96.13
2023-03-23T21:06:21.253Z,95.45
2023-03-23T21:08:48.088Z,94.88
2023-03-23T21:11:19.733Z,94.96
2023-03-23T21:13:47.063Z,94.15
2023-03-23T21:16:13.544Z,94.30
2023-03-23T21:18:40.873Z,93.26
2023-03-23T21:21:10.210Z,92.69
2023-03-23T21:23:38.402Z,92.51
2023-03-23T21:26:08.025Z,92.72
2023-03-23T21:28:34.418Z,92.12
2023-03-23T21:31:02.332Z,92.25
2023-03-23T21:33:28.890Z,91.63
2023-03-23T21:35:55.586Z,91.73
2023-03-23T21:38:26.025Z,92.07
2023-03-23T21:40:56.585Z,92.11
2023-03-23T21:43:27.070Z,92.42
2023-03-23T21:45:56.673Z,92.72
2023-03-23T21:48:24.883Z,92.59
2023-03-23T21:50:52.467Z,92.98
2023-03-23T21:53:20.703Z,92.94
2023-03-23T21:55:54.548Z,93.09
2023-03-23T21:58:23.366Z,93.47
2023-03-23T22:00:53.832Z,93.04
2023-03-23T22:03:25.091Z,93.24
2023-03-23T22:05:56.418Z,93.27
2023-03-23T22:08:25.126Z,92.49
2023-03-23T22:11:01.217Z,92.42
2023-03-23T22:13:33.229Z,92.13
2023-03-23T22:16:03.937Z,91.86
2023-03-23T22:18:33.050Z,91.24
2023-03-23T22:20:59.784Z,91.34
2023-03-23T22:23:26.732Z,90.56
2023-03-23T22:25:53.873Z,90.48
2023-03-23T22:28:20.886Z,89.93
2023-03-23T22:30:47.776Z,89.73
2023-03-23T22:33:14.981Z,89.38
2023-03-23T22:35:41.411Z,89.44
2023-03-23T22:38:07.882Z,89.07
2023-03-23T22:40:34.800Z,89.21
2023-03-23T22:43:01.274Z,89.62
2023-03-23T22:45:28.045Z,89.64
2023-03-23T22:47:55.099Z,88.97
2023-03-23T22:50:23.972Z,88.99
2023-03-23T22:52:50.783Z,88.99
2023-03-23T22:55:17.453Z,88.36
2023-03-23T22:57:43.856Z,88.18
2023-03-23T23:00:14.614Z,88.11
2023-03-23T23:02:44.654Z,88.07
2023-03-23T23:05:12.411Z,87.39
2023-03-23T23:07:45.874Z,87.42
2023-03-23T23:10:12.462Z,88.27
2023-03-23T23:12:39.183Z,88.48
2023-03-23T23:15:06.945Z,88.79
2023-03-23T23:17:34.722Z,89.44
2023-03-23T23:20:05.445Z,89.72
2023-03-23T23:22:32.514Z,89.79
2023-03-23T23:24:58.975Z,89.45
2023-03-23T23:27:25.807Z,88.57
2023-03-23T23:29:52.266Z,87.25
2023-03-23T23:32:18.717Z,87.25
2023-03-23T23:34:45.454Z,87.25
2023-03-23T23:37:11.937Z,87.36
2023-03-23T23:39:40.649Z,87.46
2023-03-23T23:42:07.135Z,87.03
2023-03-23T23:44:33.687Z,87.56
2023-03-23T23:47:00.272Z,87.24
2023-03-23T23:49:29.873Z,87.44
2023-03-23T23:51:56.525Z,87.49
2023-03-23T23:54:29.546Z,87.49
2023-03-23T23:59:25.398Z,87.19
